sensor_id;sensor_type;location;lat;lon;timestamp;P1;durP1;ratioP1;P2;durP2;ratioP2
78542;SDS011;67836;52.430;14.446;2023-03-11T00:02:33;13.30;;;6.15;;
78542;SDS011;67836;52.430;14.446;2023-03-11T00:05:19;17.75;;;8.00;;
78542;SDS011;67836;52.430;14.446;2023-03-11T00:08:06;18.88;;;9.00;;
78542;SDS011;67836;52.430;14.446;2023-03-11T00:10:52;13.45;;;6.47;;
78542;SDS011;67836;52.430;14.446;2023-03-11T00:13:38;18.02;;;8.98;;
78542;SDS011;67836;52.430;14.446;2023-03-11T00:16:23;6.63;;;3.47;;
78542;SDS011;67836;52.430;14.446;2023-03-11T00:19:08;11.48;;;5.07;;
78542;SDS011;67836;52.430;14.446;2023-03-11T00:21:53;8.73;;;4.43;;
78542;SDS011;67836;52.430;14.446;2023-03-11T00:24:37;18.27;;;7.82;;
78542;SDS011;67836;52.430;14.446;2023-03-11T00:27:21;11.13;;;5.78;;
78542;SDS011;67836;52.430;14.446;2023-03-11T00:30:05;18.38;;;8.23;;
78542;SDS011;67836;52.430;14.446;2023-03-11T00:32:50;11.55;;;5.57;;
78542;SDS011;67836;52.430;14.446;2023-03-11T00:35:38;11.60;;;4.90;;
78542;SDS011;67836;52.430;14.446;2023-03-11T00:38:22;7.00;;;3.13;;
78542;SDS011;67836;52.430;14.446;2023-03-11T00:41:06;10.43;;;4.85;;
78542;SDS011;67836;52.430;14.446;2023-03-11T00:43:50;13.13;;;6.35;;
78542;SDS011;67836;52.430;14.446;2023-03-11T00:46:35;9.48;;;4.30;;
78542;SDS011;67836;52.430;14.446;2023-03-11T00:49:19;12.40;;;4.63;;
78542;SDS011;67836;52.430;14.446;2023-03-11T00:52:03;14.57;;;7.03;;
78542;SDS011;67836;52.430;14.446;2023-03-11T00:54:47;8.77;;;4.25;;
78542;SDS011;67836;52.430;14.446;2023-03-11T00:57:31;8.60;;;3.38;;
78542;SDS011;67836;52.430;14.446;2023-03-11T01:00:16;12.90;;;5.32;;
78542;SDS011;67836;52.430;14.446;2023-03-11T01:03:02;6.80;;;3.28;;
78542;SDS011;67836;52.430;14.446;2023-03-11T01:05:46;9.43;;;4.45;;
78542;SDS011;67836;52.430;14.446;2023-03-11T01:08:30;5.82;;;3.20;;
78542;SDS011;67836;52.430;14.446;2023-03-11T01:11:14;10.85;;;4.72;;
78542;SDS011;67836;52.430;14.446;2023-03-11T01:13:59;10.77;;;4.78;;
78542;SDS011;67836;52.430;14.446;2023-03-11T01:16:42;10.02;;;5.50;;
78542;SDS011;67836;52.430;14.446;2023-03-11T01:19:27;9.70;;;4.95;;
78542;SDS011;67836;52.430;14.446;2023-03-11T01:22:10;7.68;;;3.90;;
78542;SDS011;67836;52.430;14.446;2023-03-11T01:24:55;8.27;;;4.05;;
78542;SDS011;67836;52.430;14.446;2023-03-11T01:27:38;9.40;;;4.95;;
78542;SDS011;67836;52.430;14.446;2023-03-11T01:30:23;9.27;;;5.20;;
78542;SDS011;67836;52.430;14.446;2023-03-11T01:33:09;10.45;;;5.40;;
78542;SDS011;67836;52.430;14.446;2023-03-11T01:35:57;10.52;;;4.30;;
78542;SDS011;67836;52.430;14.446;2023-03-11T01:38:41;8.48;;;4.30;;
78542;SDS011;67836;52.430;14.446;2023-03-11T01:41:25;7.57;;;3.70;;
78542;SDS011;67836;52.430;14.446;2023-03-11T01:44:10;8.77;;;3.80;;
78542;SDS011;67836;52.430;14.446;2023-03-11T01:49:42;7.78;;;4.25;;
78542;SDS011;67836;52.430;14.446;2023-03-11T01:52:26;6.75;;;3.13;;
78542;SDS011;67836;52.430;14.446;2023-03-11T01:55:11;7.43;;;4.10;;
78542;SDS011;67836;52.430;14.446;2023-03-11T01:57:56;7.13;;;3.13;;
78542;SDS011;67836;52.430;14.446;2023-03-11T02:00:42;7.53;;;3.38;;
78542;SDS011;67836;52.430;14.446;2023-03-11T02:03:31;6.35;;;2.83;;
78542;SDS011;67836;52.430;14.446;2023-03-11T02:06:20;7.30;;;3.88;;
78542;SDS011;67836;52.430;14.446;2023-03-11T02:09:06;6.47;;;3.63;;
78542;SDS011;67836;52.430;14.446;2023-03-11T02:11:51;7.75;;;3.60;;
78542;SDS011;67836;52.430;14.446;2023-03-11T02:14:35;8.32;;;3.92;;
78542;SDS011;67836;52.430;14.446;2023-03-11T02:17:20;7.95;;;4.13;;
78542;SDS011;67836;52.430;14.446;2023-03-11T02:23:04;12.90;;;8.20;;
78542;SDS011;67836;52.430;14.446;2023-03-11T02:25:59;10.25;;;5.40;;
78542;SDS011;67836;52.430;14.446;2023-03-11T02:28:47;18.55;;;9.57;;
78542;SDS011;67836;52.430;14.446;2023-03-11T02:31:34;10.60;;;6.03;;
78542;SDS011;67836;52.430;14.446;2023-03-11T02:34:22;11.93;;;6.25;;
78542;SDS011;67836;52.430;14.446;2023-03-11T02:37:08;12.18;;;7.13;;
78542;SDS011;67836;52.430;14.446;2023-03-11T02:39:54;15.38;;;7.60;;
78542;SDS011;67836;52.430;14.446;2023-03-11T02:42:38;14.88;;;7.82;;
78542;SDS011;67836;52.430;14.446;2023-03-11T02:45:23;12.55;;;7.07;;
78542;SDS011;67836;52.430;14.446;2023-03-11T02:48:08;20.45;;;11.25;;
78542;SDS011;67836;52.430;14.446;2023-03-11T02:50:53;13.60;;;7.80;;
78542;SDS011;67836;52.430;14.446;2023-03-11T02:53:42;13.80;;;8.05;;
78542;SDS011;67836;52.430;14.446;2023-03-11T02:56:29;16.73;;;9.05;;
78542;SDS011;67836;52.430;14.446;2023-03-11T02:59:13;17.48;;;11.13;;
78542;SDS011;67836;52.430;14.446;2023-03-11T03:04:41;12.43;;;6.10;;
78542;SDS011;67836;52.430;14.446;2023-03-11T03:07:25;9.70;;;5.30;;
78542;SDS011;67836;52.430;14.446;2023-03-11T03:10:09;14.07;;;7.70;;
78542;SDS011;67836;52.430;14.446;2023-03-11T03:12:53;12.32;;;7.22;;
78542;SDS011;67836;52.430;14.446;2023-03-11T03:15:37;12.50;;;5.57;;
78542;SDS011;67836;52.430;14.446;2023-03-11T03:18:22;10.60;;;5.68;;
78542;SDS011;67836;52.430;14.446;2023-03-11T03:21:06;10.10;;;5.13;;
78542;SDS011;67836;52.430;14.446;2023-03-11T03:26:34;11.00;;;6.05;;
78542;SDS011;67836;52.430;14.446;2023-03-11T03:29:18;11.00;;;6.10;;
78542;SDS011;67836;52.430;14.446;2023-03-11T03:32:02;7.75;;;4.03;;
78542;SDS011;67836;52.430;14.446;2023-03-11T03:34:46;9.02;;;5.43;;
78542;SDS011;67836;52.430;14.446;2023-03-11T03:37:33;8.48;;;4.40;;
78542;SDS011;67836;52.430;14.446;2023-03-11T03:40:18;7.40;;;4.03;;
78542;SDS011;67836;52.430;14.446;2023-03-11T03:43:02;8.55;;;4.35;;
78542;SDS011;67836;52.430;14.446;2023-03-11T03:45:56;6.68;;;4.07;;
78542;SDS011;67836;52.430;14.446;2023-03-11T03:48:42;5.40;;;3.00;;
78542;SDS011;67836;52.430;14.446;2023-03-11T03:51:26;6.97;;;2.95;;
78542;SDS011;67836;52.430;14.446;2023-03-11T03:54:10;4.45;;;1.90;;
78542;SDS011;67836;52.430;14.446;2023-03-11T03:56:54;4.97;;;2.30;;
78542;SDS011;67836;52.430;14.446;2023-03-11T03:59:38;5.53;;;1.92;;
78542;SDS011;67836;52.430;14.446;2023-03-11T04:02:22;3.63;;;1.83;;
78542;SDS011;67836;52.430;14.446;2023-03-11T04:05:07;3.40;;;2.22;;
78542;SDS011;67836;52.430;14.446;2023-03-11T04:07:51;3.00;;;1.50;;
78542;SDS011;67836;52.430;14.446;2023-03-11T04:10:35;3.20;;;1.77;;
78542;SDS011;67836;52.430;14.446;2023-03-11T04:13:20;3.80;;;1.85;;
78542;SDS011;67836;52.430;14.446;2023-03-11T04:16:04;3.08;;;1.65;;
78542;SDS011;67836;52.430;14.446;2023-03-11T04:18:49;4.55;;;2.10;;
78542;SDS011;67836;52.430;14.446;2023-03-11T04:21:34;4.28;;;1.92;;
78542;SDS011;67836;52.430;14.446;2023-03-11T04:24:18;3.50;;;1.98;;
78542;SDS011;67836;52.430;14.446;2023-03-11T04:27:02;4.28;;;1.92;;
78542;SDS011;67836;52.430;14.446;2023-03-11T04:29:46;3.35;;;1.85;;
78542;SDS011;67836;52.430;14.446;2023-03-11T04:32:33;2.90;;;1.85;;
78542;SDS011;67836;52.430;14.446;2023-03-11T04:35:17;3.75;;;1.92;;
78542;SDS011;67836;52.430;14.446;2023-03-11T04:38:01;2.88;;;1.70;;
78542;SDS011;67836;52.430;14.446;2023-03-11T04:40:45;3.60;;;1.95;;
78542;SDS011;67836;52.430;14.446;2023-03-11T04:43:29;3.05;;;1.60;;
78542;SDS011;67836;52.430;14.446;2023-03-11T04:46:13;3.97;;;2.05;;
78542;SDS011;67836;52.430;14.446;2023-03-11T04:48:57;3.97;;;2.00;;
78542;SDS011;67836;52.430;14.446;2023-03-11T04:51:44;3.30;;;1.63;;
78542;SDS011;67836;52.430;14.446;2023-03-11T04:54:28;5.15;;;2.55;;
78542;SDS011;67836;52.430;14.446;2023-03-11T04:57:12;3.75;;;1.90;;
78542;SDS011;67836;52.430;14.446;2023-03-11T04:59:56;2.67;;;1.60;;
78542;SDS011;67836;52.430;14.446;2023-03-11T05:02:40;4.50;;;2.00;;
78542;SDS011;67836;52.430;14.446;2023-03-11T05:05:25;2.92;;;1.50;;
78542;SDS011;67836;52.430;14.446;2023-03-11T05:08:09;2.92;;;1.80;;
78542;SDS011;67836;52.430;14.446;2023-03-11T05:10:53;3.92;;;1.55;;
78542;SDS011;67836;52.430;14.446;2023-03-11T05:13:37;3.65;;;1.80;;
78542;SDS011;67836;52.430;14.446;2023-03-11T05:16:21;3.35;;;1.65;;
78542;SDS011;67836;52.430;14.446;2023-03-11T05:19:05;3.75;;;1.77;;
78542;SDS011;67836;52.430;14.446;2023-03-11T05:22:09;5.40;;;2.08;;
78542;SDS011;67836;52.430;14.446;2023-03-11T05:24:53;2.95;;;1.42;;
78542;SDS011;67836;52.430;14.446;2023-03-11T05:27:38;4.00;;;1.85;;
78542;SDS011;67836;52.430;14.446;2023-03-11T05:30:22;2.90;;;1.60;;
78542;SDS011;67836;52.430;14.446;2023-03-11T05:33:07;3.78;;;1.50;;
78542;SDS011;67836;52.430;14.446;2023-03-11T05:35:51;1.80;;;1.05;;
78542;SDS011;67836;52.430;14.446;2023-03-11T05:38:36;4.68;;;1.73;;
78542;SDS011;67836;52.430;14.446;2023-03-11T05:41:20;3.08;;;1.80;;
78542;SDS011;67836;52.430;14.446;2023-03-11T05:44:04;3.72;;;1.92;;
78542;SDS011;67836;52.430;14.446;2023-03-11T05:46:48;3.58;;;1.52;;
78542;SDS011;67836;52.430;14.446;2023-03-11T05:49:32;3.13;;;1.48;;
78542;SDS011;67836;52.430;14.446;2023-03-11T05:52:16;1.92;;;1.20;;
78542;SDS011;67836;52.430;14.446;2023-03-11T05:55:00;3.10;;;1.63;;
78542;SDS011;67836;52.430;14.446;2023-03-11T05:57:45;2.13;;;1.42;;
78542;SDS011;67836;52.430;14.446;2023-03-11T06:00:29;2.08;;;1.17;;
78542;SDS011;67836;52.430;14.446;2023-03-11T06:03:13;2.35;;;1.38;;
78542;SDS011;67836;52.430;14.446;2023-03-11T06:05:57;2.65;;;1.58;;
78542;SDS011;67836;52.430;14.446;2023-03-11T06:08:41;4.30;;;1.77;;
78542;SDS011;67836;52.430;14.446;2023-03-11T06:11:31;5.53;;;2.58;;
78542;SDS011;67836;52.430;14.446;2023-03-11T06:14:15;4.13;;;1.85;;
78542;SDS011;67836;52.430;14.446;2023-03-11T06:17:00;4.22;;;2.17;;
78542;SDS011;67836;52.430;14.446;2023-03-11T06:19:44;4.40;;;2.10;;
78542;SDS011;67836;52.430;14.446;2023-03-11T06:22:28;2.25;;;1.45;;
78542;SDS011;67836;52.430;14.446;2023-03-11T06:25:12;4.53;;;1.75;;
78542;SDS011;67836;52.430;14.446;2023-03-11T06:27:57;4.50;;;2.05;;
78542;SDS011;67836;52.430;14.446;2023-03-11T06:30:41;3.28;;;1.58;;
78542;SDS011;67836;52.430;14.446;2023-03-11T06:33:25;4.95;;;1.85;;
78542;SDS011;67836;52.430;14.446;2023-03-11T06:36:09;5.57;;;2.50;;
78542;SDS011;67836;52.430;14.446;2023-03-11T06:38:55;4.45;;;2.22;;
78542;SDS011;67836;52.430;14.446;2023-03-11T06:41:40;4.03;;;2.33;;
78542;SDS011;67836;52.430;14.446;2023-03-11T06:44:24;3.22;;;1.75;;
78542;SDS011;67836;52.430;14.446;2023-03-11T06:47:08;4.65;;;2.00;;
78542;SDS011;67836;52.430;14.446;2023-03-11T06:49:52;5.63;;;2.58;;
78542;SDS011;67836;52.430;14.446;2023-03-11T06:52:36;6.43;;;2.28;;
78542;SDS011;67836;52.430;14.446;2023-03-11T06:55:21;2.83;;;1.63;;
78542;SDS011;67836;52.430;14.446;2023-03-11T06:58:05;6.32;;;3.03;;
78542;SDS011;67836;52.430;14.446;2023-03-11T07:00:49;7.78;;;2.75;;
78542;SDS011;67836;52.430;14.446;2023-03-11T07:03:33;4.60;;;2.17;;
78542;SDS011;67836;52.430;14.446;2023-03-11T07:06:18;3.47;;;1.73;;
78542;SDS011;67836;52.430;14.446;2023-03-11T07:09:04;3.58;;;1.27;;
78542;SDS011;67836;52.430;14.446;2023-03-11T07:11:48;4.90;;;2.50;;
78542;SDS011;67836;52.430;14.446;2023-03-11T07:14:32;5.55;;;2.55;;
78542;SDS011;67836;52.430;14.446;2023-03-11T07:17:16;5.22;;;2.17;;
78542;SDS011;67836;52.430;14.446;2023-03-11T07:20:01;4.88;;;2.30;;
78542;SDS011;67836;52.430;14.446;2023-03-11T07:22:45;3.83;;;2.08;;
78542;SDS011;67836;52.430;14.446;2023-03-11T07:25:29;5.57;;;2.47;;
78542;SDS011;67836;52.430;14.446;2023-03-11T07:28:13;3.95;;;1.50;;
78542;SDS011;67836;52.430;14.446;2023-03-11T07:30:58;5.07;;;2.35;;
78542;SDS011;67836;52.430;14.446;2023-03-11T07:33:42;3.97;;;2.35;;
78542;SDS011;67836;52.430;14.446;2023-03-11T07:36:27;3.13;;;1.77;;
78542;SDS011;67836;52.430;14.446;2023-03-11T07:39:13;3.38;;;1.88;;
78542;SDS011;67836;52.430;14.446;2023-03-11T07:41:58;3.45;;;1.52;;
78542;SDS011;67836;52.430;14.446;2023-03-11T07:44:42;3.90;;;1.90;;
78542;SDS011;67836;52.430;14.446;2023-03-11T07:47:26;2.90;;;1.40;;
78542;SDS011;67836;52.430;14.446;2023-03-11T07:50:10;1.73;;;1.00;;
78542;SDS011;67836;52.430;14.446;2023-03-11T07:52:55;3.30;;;1.75;;
78542;SDS011;67836;52.430;14.446;2023-03-11T07:55:39;5.90;;;2.13;;
78542;SDS011;67836;52.430;14.446;2023-03-11T07:58:25;5.00;;;2.30;;
78542;SDS011;67836;52.430;14.446;2023-03-11T08:01:14;3.40;;;1.60;;
78542;SDS011;67836;52.430;14.446;2023-03-11T08:04:03;4.17;;;1.77;;
78542;SDS011;67836;52.430;14.446;2023-03-11T08:06:56;3.10;;;1.50;;
78542;SDS011;67836;52.430;14.446;2023-03-11T08:09:56;3.53;;;1.85;;
78542;SDS011;67836;52.430;14.446;2023-03-11T08:12:42;5.63;;;2.60;;
78542;SDS011;67836;52.430;14.446;2023-03-11T08:15:32;3.85;;;1.75;;
78542;SDS011;67836;52.430;14.446;2023-03-11T08:18:20;4.53;;;2.05;;
78542;SDS011;67836;52.430;14.446;2023-03-11T08:21:08;3.85;;;1.48;;
78542;SDS011;67836;52.430;14.446;2023-03-11T08:24:01;4.22;;;2.05;;
78542;SDS011;67836;52.430;14.446;2023-03-11T08:26:47;3.00;;;1.70;;
78542;SDS011;67836;52.430;14.446;2023-03-11T08:29:34;2.00;;;1.02;;
78542;SDS011;67836;52.430;14.446;2023-03-11T08:32:18;5.00;;;1.88;;
78542;SDS011;67836;52.430;14.446;2023-03-11T08:35:02;5.05;;;2.33;;
78542;SDS011;67836;52.430;14.446;2023-03-11T08:37:46;5.78;;;2.05;;
78542;SDS011;67836;52.430;14.446;2023-03-11T08:40:31;2.97;;;1.67;;
78542;SDS011;67836;52.430;14.446;2023-03-11T08:43:14;4.68;;;2.25;;
78542;SDS011;67836;52.430;14.446;2023-03-11T08:45:59;3.33;;;1.60;;
78542;SDS011;67836;52.430;14.446;2023-03-11T08:48:44;3.22;;;1.55;;
78542;SDS011;67836;52.430;14.446;2023-03-11T08:51:30;4.53;;;2.63;;
78542;SDS011;67836;52.430;14.446;2023-03-11T08:54:15;4.70;;;2.05;;
78542;SDS011;67836;52.430;14.446;2023-03-11T08:56:59;4.05;;;2.17;;
78542;SDS011;67836;52.430;14.446;2023-03-11T08:59:45;5.13;;;2.17;;
78542;SDS011;67836;52.430;14.446;2023-03-11T09:02:29;5.15;;;2.25;;
78542;SDS011;67836;52.430;14.446;2023-03-11T09:05:13;4.82;;;1.88;;
78542;SDS011;67836;52.430;14.446;2023-03-11T09:07:58;6.82;;;2.25;;
78542;SDS011;67836;52.430;14.446;2023-03-11T09:10:42;3.53;;;1.73;;
78542;SDS011;67836;52.430;14.446;2023-03-11T09:13:27;3.80;;;2.22;;
78542;SDS011;67836;52.430;14.446;2023-03-11T09:16:13;5.45;;;1.95;;
78542;SDS011;67836;52.430;14.446;2023-03-11T09:19:00;4.00;;;2.05;;
78542;SDS011;67836;52.430;14.446;2023-03-11T09:21:49;4.25;;;2.45;;
78542;SDS011;67836;52.430;14.446;2023-03-11T09:24:39;4.75;;;2.00;;
78542;SDS011;67836;52.430;14.446;2023-03-11T09:27:23;4.82;;;2.22;;
78542;SDS011;67836;52.430;14.446;2023-03-11T09:30:08;6.15;;;2.60;;
78542;SDS011;67836;52.430;14.446;2023-03-11T09:32:52;4.00;;;2.00;;
78542;SDS011;67836;52.430;14.446;2023-03-11T09:35:37;5.22;;;2.35;;
78542;SDS011;67836;52.430;14.446;2023-03-11T09:38:21;6.57;;;2.70;;
78542;SDS011;67836;52.430;14.446;2023-03-11T09:44:27;4.38;;;2.10;;
78542;SDS011;67836;52.430;14.446;2023-03-11T09:50:13;4.70;;;2.42;;
78542;SDS011;67836;52.430;14.446;2023-03-11T09:56:06;5.07;;;2.63;;
78542;SDS011;67836;52.430;14.446;2023-03-11T09:58:53;5.63;;;2.45;;
78542;SDS011;67836;52.430;14.446;2023-03-11T10:01:43;4.93;;;2.70;;
78542;SDS011;67836;52.430;14.446;2023-03-11T10:04:33;4.07;;;2.00;;
78542;SDS011;67836;52.430;14.446;2023-03-11T10:07:24;5.15;;;2.35;;
78542;SDS011;67836;52.430;14.446;2023-03-11T10:10:12;4.43;;;2.28;;
78542;SDS011;67836;52.430;14.446;2023-03-11T10:16:01;5.35;;;2.53;;
78542;SDS011;67836;52.430;14.446;2023-03-11T10:18:52;5.95;;;2.83;;
78542;SDS011;67836;52.430;14.446;2023-03-11T10:21:42;5.53;;;2.45;;
78542;SDS011;67836;52.430;14.446;2023-03-11T10:24:53;4.30;;;2.17;;
78542;SDS011;67836;52.430;14.446;2023-03-11T10:27:52;6.40;;;2.55;;
78542;SDS011;67836;52.430;14.446;2023-03-11T10:30:39;5.45;;;2.30;;
78542;SDS011;67836;52.430;14.446;2023-03-11T10:33:37;3.95;;;2.25;;
78542;SDS011;67836;52.430;14.446;2023-03-11T10:39:36;3.15;;;1.70;;
78542;SDS011;67836;52.430;14.446;2023-03-11T10:42:22;3.72;;;2.20;;
78542;SDS011;67836;52.430;14.446;2023-03-11T10:45:12;3.97;;;2.00;;
78542;SDS011;67836;52.430;14.446;2023-03-11T10:47:56;4.70;;;2.20;;
78542;SDS011;67836;52.430;14.446;2023-03-11T10:50:44;3.55;;;1.55;;
78542;SDS011;67836;52.430;14.446;2023-03-11T10:53:46;3.97;;;2.25;;
78542;SDS011;67836;52.430;14.446;2023-03-11T10:56:34;5.05;;;2.00;;
78542;SDS011;67836;52.430;14.446;2023-03-11T11:02:37;3.22;;;1.85;;
78542;SDS011;67836;52.430;14.446;2023-03-11T11:05:26;3.25;;;1.45;;
78542;SDS011;67836;52.430;14.446;2023-03-11T11:08:12;3.58;;;1.55;;
78542;SDS011;67836;52.430;14.446;2023-03-11T11:10:59;2.80;;;1.73;;
78542;SDS011;67836;52.430;14.446;2023-03-11T11:13:45;2.42;;;1.50;;
78542;SDS011;67836;52.430;14.446;2023-03-11T11:16:39;3.90;;;1.75;;
78542;SDS011;67836;52.430;14.446;2023-03-11T11:19:23;2.40;;;1.40;;
78542;SDS011;67836;52.430;14.446;2023-03-11T11:22:09;3.10;;;1.55;;
78542;SDS011;67836;52.430;14.446;2023-03-11T11:24:57;3.25;;;1.75;;
78542;SDS011;67836;52.430;14.446;2023-03-11T11:27:46;2.80;;;1.40;;
78542;SDS011;67836;52.430;14.446;2023-03-11T11:30:37;3.20;;;1.80;;
78542;SDS011;67836;52.430;14.446;2023-03-11T11:33:39;3.92;;;1.58;;
78542;SDS011;67836;52.430;14.446;2023-03-11T11:36:34;3.95;;;1.80;;
78542;SDS011;67836;52.430;14.446;2023-03-11T11:39:19;3.55;;;1.80;;
78542;SDS011;67836;52.430;14.446;2023-03-11T11:42:04;3.45;;;1.75;;
78542;SDS011;67836;52.430;14.446;2023-03-11T11:44:50;2.92;;;1.30;;
78542;SDS011;67836;52.430;14.446;2023-03-11T11:47:36;2.78;;;1.40;;
78542;SDS011;67836;52.430;14.446;2023-03-11T11:53:19;4.75;;;1.83;;
78542;SDS011;67836;52.430;14.446;2023-03-11T11:56:24;3.40;;;1.77;;
78542;SDS011;67836;52.430;14.446;2023-03-11T11:59:15;3.53;;;1.80;;
78542;SDS011;67836;52.430;14.446;2023-03-11T12:08:31;3.22;;;1.50;;
78542;SDS011;67836;52.430;14.446;2023-03-11T12:11:29;2.63;;;1.42;;
78542;SDS011;67836;52.430;14.446;2023-03-11T12:14:22;3.88;;;1.67;;
78542;SDS011;67836;52.430;14.446;2023-03-11T12:17:10;2.92;;;1.45;;
78542;SDS011;67836;52.430;14.446;2023-03-11T12:19:59;2.80;;;1.52;;
78542;SDS011;67836;52.430;14.446;2023-03-11T12:28:56;4.35;;;2.00;;
78542;SDS011;67836;52.430;14.446;2023-03-11T12:31:44;3.97;;;2.03;;
78542;SDS011;67836;52.430;14.446;2023-03-11T12:34:28;3.75;;;1.80;;
78542;SDS011;67836;52.430;14.446;2023-03-11T12:37:14;4.53;;;2.80;;
78542;SDS011;67836;52.430;14.446;2023-03-11T12:40:37;2.53;;;1.23;;
78542;SDS011;67836;52.430;14.446;2023-03-11T12:46:16;2.35;;;1.55;;
78542;SDS011;67836;52.430;14.446;2023-03-11T12:52:00;1.70;;;1.00;;
78542;SDS011;67836;52.430;14.446;2023-03-11T13:00:36;2.33;;;1.45;;
78542;SDS011;67836;52.430;14.446;2023-03-11T13:03:38;2.75;;;1.70;;
78542;SDS011;67836;52.430;14.446;2023-03-11T13:06:33;3.35;;;1.90;;
78542;SDS011;67836;52.430;14.446;2023-03-11T13:09:23;2.17;;;1.38;;
78542;SDS011;67836;52.430;14.446;2023-03-11T13:20:56;4.93;;;1.60;;
78542;SDS011;67836;52.430;14.446;2023-03-11T13:23:41;1.60;;;1.00;;
78542;SDS011;67836;52.430;14.446;2023-03-11T13:26:28;3.22;;;1.50;;
78542;SDS011;67836;52.430;14.446;2023-03-11T13:32:41;3.25;;;1.55;;
78542;SDS011;67836;52.430;14.446;2023-03-11T13:35:39;2.45;;;1.30;;
78542;SDS011;67836;52.430;14.446;2023-03-11T13:41:19;2.22;;;1.50;;
78542;SDS011;67836;52.430;14.446;2023-03-11T13:44:11;3.92;;;2.05;;
78542;SDS011;67836;52.430;14.446;2023-03-11T13:46:59;2.42;;;1.33;;
78542;SDS011;67836;52.430;14.446;2023-03-11T13:52:50;4.18;;;1.90;;
78542;SDS011;67836;52.430;14.446;2023-03-11T13:55:41;2.80;;;1.50;;
78542;SDS011;67836;52.430;14.446;2023-03-11T13:58:28;3.58;;;1.35;;
78542;SDS011;67836;52.430;14.446;2023-03-11T14:01:13;4.57;;;2.50;;
78542;SDS011;67836;52.430;14.446;2023-03-11T14:03:58;3.13;;;1.30;;
78542;SDS011;67836;52.430;14.446;2023-03-11T14:06:42;4.35;;;1.75;;
78542;SDS011;67836;52.430;14.446;2023-03-11T14:09:27;4.03;;;2.00;;
78542;SDS011;67836;52.430;14.446;2023-03-11T14:12:11;6.78;;;3.05;;
78542;SDS011;67836;52.430;14.446;2023-03-11T14:14:59;4.53;;;1.98;;
78542;SDS011;67836;52.430;14.446;2023-03-11T14:17:45;2.45;;;1.50;;
78542;SDS011;67836;52.430;14.446;2023-03-11T14:20:29;3.35;;;1.85;;
78542;SDS011;67836;52.430;14.446;2023-03-11T14:23:16;3.30;;;2.20;;
78542;SDS011;67836;52.430;14.446;2023-03-11T14:26:04;5.70;;;2.75;;
78542;SDS011;67836;52.430;14.446;2023-03-11T14:28:50;6.22;;;3.45;;
78542;SDS011;67836;52.430;14.446;2023-03-11T14:31:37;6.32;;;3.28;;
78542;SDS011;67836;52.430;14.446;2023-03-11T14:34:24;7.00;;;3.58;;
78542;SDS011;67836;52.430;14.446;2023-03-11T14:40:29;6.57;;;3.40;;
78542;SDS011;67836;52.430;14.446;2023-03-11T14:43:15;6.65;;;4.03;;
78542;SDS011;67836;52.430;14.446;2023-03-11T14:45:59;7.97;;;4.30;;
78542;SDS011;67836;52.430;14.446;2023-03-11T14:48:44;6.82;;;4.05;;
78542;SDS011;67836;52.430;14.446;2023-03-11T14:51:29;7.82;;;4.35;;
78542;SDS011;67836;52.430;14.446;2023-03-11T14:54:22;7.05;;;3.97;;
78542;SDS011;67836;52.430;14.446;2023-03-11T14:57:18;7.78;;;4.05;;
78542;SDS011;67836;52.430;14.446;2023-03-11T15:00:10;7.75;;;3.50;;
78542;SDS011;67836;52.430;14.446;2023-03-11T15:03:12;7.10;;;3.85;;
78542;SDS011;67836;52.430;14.446;2023-03-11T15:06:28;9.13;;;4.72;;
78542;SDS011;67836;52.430;14.446;2023-03-11T15:09:13;6.50;;;3.42;;
78542;SDS011;67836;52.430;14.446;2023-03-11T15:12:00;5.32;;;2.88;;
78542;SDS011;67836;52.430;14.446;2023-03-11T15:14:48;8.18;;;4.20;;
78542;SDS011;67836;52.430;14.446;2023-03-11T15:17:33;8.93;;;4.03;;
78542;SDS011;67836;52.430;14.446;2023-03-11T15:20:33;8.15;;;3.80;;
78542;SDS011;67836;52.430;14.446;2023-03-11T15:23:20;7.82;;;4.32;;
78542;SDS011;67836;52.430;14.446;2023-03-11T15:26:05;10.02;;;5.45;;
78542;SDS011;67836;52.430;14.446;2023-03-11T15:28:53;7.82;;;4.10;;
78542;SDS011;67836;52.430;14.446;2023-03-11T15:31:38;6.70;;;3.85;;
78542;SDS011;67836;52.430;14.446;2023-03-11T15:34:24;6.95;;;3.40;;
78542;SDS011;67836;52.430;14.446;2023-03-11T15:37:18;8.57;;;4.28;;
78542;SDS011;67836;52.430;14.446;2023-03-11T15:40:11;9.13;;;4.80;;
78542;SDS011;67836;52.430;14.446;2023-03-11T15:43:23;7.13;;;3.42;;
78542;SDS011;67836;52.430;14.446;2023-03-11T15:46:10;8.70;;;4.43;;
78542;SDS011;67836;52.430;14.446;2023-03-11T15:48:54;9.93;;;4.68;;
78542;SDS011;67836;52.430;14.446;2023-03-11T15:51:38;6.15;;;3.60;;
78542;SDS011;67836;52.430;14.446;2023-03-11T15:54:23;7.78;;;4.20;;
78542;SDS011;67836;52.430;14.446;2023-03-11T15:57:07;8.50;;;3.90;;
78542;SDS011;67836;52.430;14.446;2023-03-11T15:59:53;8.25;;;3.80;;
78542;SDS011;67836;52.430;14.446;2023-03-11T16:02:38;10.20;;;5.00;;
78542;SDS011;67836;52.430;14.446;2023-03-11T16:05:23;7.82;;;4.38;;
78542;SDS011;67836;52.430;14.446;2023-03-11T16:08:07;7.57;;;3.92;;
78542;SDS011;67836;52.430;14.446;2023-03-11T16:10:52;8.90;;;4.85;;
78542;SDS011;67836;52.430;14.446;2023-03-11T16:16:19;5.07;;;2.67;;
78542;SDS011;67836;52.430;14.446;2023-03-11T16:19:03;4.40;;;2.58;;
78542;SDS011;67836;52.430;14.446;2023-03-11T16:21:48;6.25;;;3.58;;
78542;SDS011;67836;52.430;14.446;2023-03-11T16:24:32;7.32;;;2.45;;
78542;SDS011;67836;52.430;14.446;2023-03-11T16:27:16;7.18;;;3.67;;
78542;SDS011;67836;52.430;14.446;2023-03-11T16:30:01;6.68;;;3.05;;
78542;SDS011;67836;52.430;14.446;2023-03-11T16:32:46;7.05;;;3.47;;
78542;SDS011;67836;52.430;14.446;2023-03-11T16:35:30;6.15;;;3.30;;
78542;SDS011;67836;52.430;14.446;2023-03-11T16:38:15;4.47;;;2.35;;
78542;SDS011;67836;52.430;14.446;2023-03-11T16:41:02;6.22;;;3.17;;
78542;SDS011;67836;52.430;14.446;2023-03-11T16:43:45;5.82;;;2.75;;
78542;SDS011;67836;52.430;14.446;2023-03-11T16:46:30;5.22;;;2.22;;
78542;SDS011;67836;52.430;14.446;2023-03-11T16:49:14;5.60;;;2.70;;
78542;SDS011;67836;52.430;14.446;2023-03-11T16:51:58;7.32;;;4.20;;
78542;SDS011;67836;52.430;14.446;2023-03-11T16:54:42;7.22;;;3.88;;
78542;SDS011;67836;52.430;14.446;2023-03-11T16:57:26;7.13;;;3.08;;
78542;SDS011;67836;52.430;14.446;2023-03-11T17:00:11;6.57;;;3.40;;
78542;SDS011;67836;52.430;14.446;2023-03-11T17:02:57;6.93;;;3.60;;
78542;SDS011;67836;52.430;14.446;2023-03-11T17:05:42;3.15;;;1.83;;
78542;SDS011;67836;52.430;14.446;2023-03-11T17:08:26;4.72;;;2.30;;
78542;SDS011;67836;52.430;14.446;2023-03-11T17:11:14;4.40;;;2.50;;
78542;SDS011;67836;52.430;14.446;2023-03-11T17:13:59;5.90;;;2.42;;
78542;SDS011;67836;52.430;14.446;2023-03-11T17:16:43;7.72;;;3.53;;
78542;SDS011;67836;52.430;14.446;2023-03-11T17:19:29;7.90;;;3.60;;
78542;SDS011;67836;52.430;14.446;2023-03-11T17:22:13;6.93;;;3.95;;
78542;SDS011;67836;52.430;14.446;2023-03-11T17:24:57;7.28;;;3.65;;
78542;SDS011;67836;52.430;14.446;2023-03-11T17:27:41;6.85;;;2.78;;
78542;SDS011;67836;52.430;14.446;2023-03-11T17:30:26;5.80;;;2.58;;
78542;SDS011;67836;52.430;14.446;2023-03-11T17:33:10;7.28;;;4.88;;
78542;SDS011;67836;52.430;14.446;2023-03-11T17:36:03;6.90;;;2.92;;
78542;SDS011;67836;52.430;14.446;2023-03-11T17:38:49;7.68;;;2.65;;
78542;SDS011;67836;52.430;14.446;2023-03-11T17:41:34;4.63;;;2.20;;
78542;SDS011;67836;52.430;14.446;2023-03-11T17:44:18;5.32;;;2.38;;
78542;SDS011;67836;52.430;14.446;2023-03-11T17:47:02;5.45;;;2.70;;
78542;SDS011;67836;52.430;14.446;2023-03-11T17:49:47;5.50;;;2.40;;